createdAt,value
2022-09-12T00:02:39.407Z,94851.91
2022-09-12T00:05:44.938Z,94852.38
2022-09-12T00:08:48.306Z,94854.59
2022-09-12T00:11:51.431Z,94851.91
2022-09-12T00:14:54.677Z,94858.34
2022-09-12T00:17:57.750Z,94864.81
2022-09-12T00:21:06.072Z,94867.84
2022-09-12T00:24:09.291Z,94855.88
2022-09-12T00:27:12.320Z,94875.84
2022-09-12T00:30:15.399Z,94873.41
2022-09-12T00:33:19.520Z,94874.63
2022-09-12T00:36:26.373Z,94877.31
2022-09-12T00:39:29.431Z,94868.94
2022-09-12T00:42:32.497Z,94866.59
2022-09-12T00:45:35.746Z,94866.59
2022-09-12T00:48:44.069Z,94865.69
2022-09-12T00:51:52.756Z,94870.84
2022-09-12T00:55:00.998Z,94871.94
2022-09-12T00:58:08.334Z,94870.84
2022-09-12T01:01:11.626Z,94865.81
2022-09-12T01:04:15.213Z,94868.38
2022-09-12T01:07:20.878Z,94860.34
2022-09-12T01:10:25.033Z,94855.78
2022-09-12T01:13:29.359Z,94861.44
2022-09-12T01:16:33.452Z,94848.97
2022-09-12T01:20:16.158Z,94845.84
2022-09-12T01:23:39.270Z,94840.50
2022-09-12T01:27:20.521Z,94841.59
2022-09-12T01:30:41.766Z,94843.38
2022-09-12T01:33:54.613Z,94843.03
2022-09-12T01:37:05.747Z,94848.72
2022-09-12T01:40:16.690Z,94847.94
2022-09-12T01:43:25.256Z,94845.91
2022-09-12T01:46:34.327Z,94849.38
2022-09-12T01:49:42.365Z,94849.38
2022-09-12T01:52:51.382Z,94846.72
2022-09-12T01:55:58.722Z,94837.09
2022-09-12T01:59:06.762Z,94843.56
2022-09-12T02:02:17.730Z,94836.59
2022-09-12T02:05:27.075Z,94838.50
2022-09-12T02:08:34.907Z,94830.03
2022-09-12T02:11:43.051Z,94835.81
2022-09-12T02:14:51.166Z,94838.50
2022-09-12T02:18:01.308Z,94842.63
2022-09-12T02:21:07.712Z,94846.72
2022-09-12T02:24:14.082Z,94848.41
2022-09-12T02:27:20.962Z,94853.31
2022-09-12T02:30:27.375Z,94850.53
2022-09-12T02:33:40.111Z,94850.53
2022-09-12T02:36:51.346Z,94845.16
2022-09-12T02:39:55.320Z,94855.88
2022-09-12T02:42:59.115Z,94852.88
2022-09-12T02:46:02.243Z,94853.53
2022-09-12T02:49:09.344Z,94859.31
2022-09-12T02:52:12.779Z,94852.41
2022-09-12T02:55:17.101Z,94852.75
2022-09-12T02:58:25.390Z,94860.44
2022-09-12T03:01:42.183Z,94857.31
2022-09-12T03:05:14.623Z,94870.22
2022-09-12T03:08:36.891Z,94861.94
2022-09-12T03:11:52.497Z,94865.22
2022-09-12T03:15:18.255Z,94868.66
2022-09-12T03:18:35.663Z,94863.78
2022-09-12T03:21:52.005Z,94860.66
2022-09-12T03:25:01.675Z,94864.59
2022-09-12T03:28:09.457Z,94864.72
2022-09-12T03:31:16.610Z,94858.91
2022-09-12T03:34:20.407Z,94860.81
2022-09-12T03:37:25.005Z,94868.84
2022-09-12T03:40:28.055Z,94866.63
2022-09-12T03:43:31.287Z,94865.50
2022-09-12T03:46:34.386Z,94864.59
2022-09-12T03:49:37.483Z,94857.69
2022-09-12T03:52:42.038Z,94855.13
2022-09-12T03:55:45.224Z,94856.69
2022-09-12T03:58:48.395Z,94855.09
2022-09-12T04:01:51.520Z,94850.97
2022-09-12T04:04:54.574Z,94854.44
2022-09-12T04:07:59.452Z,94857.44
2022-09-12T04:11:06.461Z,94862.66
2022-09-12T04:14:09.672Z,94862.84
2022-09-12T04:17:13.074Z,94864.88
2022-09-12T04:20:16.297Z,94867.22
2022-09-12T04:23:21.031Z,94874.66
2022-09-12T04:26:24.229Z,94875.28
2022-09-12T04:29:27.871Z,94884.84
2022-09-12T04:32:32.087Z,94886.53
2022-09-12T04:35:36.661Z,94880.25
2022-09-12T04:38:41.315Z,94891.09
2022-09-12T04:41:44.527Z,94886.97
2022-09-12T04:44:47.945Z,94888.88
2022-09-12T04:47:51.049Z,94879.94
2022-09-12T04:50:54.172Z,94892.53
2022-09-12T04:54:00.347Z,94886.41
2022-09-12T04:57:03.486Z,94894.75
2022-09-12T05:00:07.668Z,94895.25
2022-09-12T05:03:10.932Z,94893.09
2022-09-12T05:06:17.704Z,94895.25
2022-09-12T05:09:22.328Z,94889.69
2022-09-12T05:12:25.775Z,94897.25
2022-09-12T05:15:28.927Z,94893.03
2022-09-12T05:18:33.219Z,94885.44
2022-09-12T05:21:36.471Z,94889.69
2022-09-12T05:24:47.305Z,94885.63
2022-09-12T05:27:54.381Z,94885.44
2022-09-12T05:31:02.533Z,94884.34
2022-09-12T05:34:10.377Z,94889.41
2022-09-12T05:37:13.471Z,94884.84
2022-09-12T05:40:19.425Z,94889.19
2022-09-12T05:43:22.467Z,94887.31
2022-09-12T05:46:27.201Z,94878.81
2022-09-12T05:49:30.338Z,94872.25
2022-09-12T05:52:33.687Z,94871.63
2022-09-12T05:55:38.096Z,94875.69
2022-09-12T05:58:43.291Z,94870.59
2022-09-12T06:01:47.115Z,94866.00
2022-09-12T06:04:50.483Z,94858.78
2022-09-12T06:07:53.555Z,94860.47
2022-09-12T06:11:02.437Z,94863.41
2022-09-12T06:14:05.785Z,94864.25
2022-09-12T06:17:08.798Z,94859.47
2022-09-12T06:20:11.845Z,94852.56
2022-09-12T06:23:15.061Z,94861.97
2022-09-12T06:26:21.790Z,94855.28
2022-09-12T06:29:25.047Z,94866.72
2022-09-12T06:32:31.768Z,94863.06
2022-09-12T06:35:37.495Z,94864.41
2022-09-12T06:38:40.989Z,94879.34
2022-09-12T06:41:46.359Z,94878.06
2022-09-12T06:44:50.819Z,94881.63
2022-09-12T06:47:53.877Z,94882.53
2022-09-12T06:50:58.863Z,94892.91
2022-09-12T06:54:01.869Z,94880.00
2022-09-12T06:57:06.630Z,94896.22
2022-09-12T07:00:11.516Z,94895.44
2022-09-12T07:03:14.708Z,94888.31
2022-09-12T07:06:19.717Z,94898.69
2022-09-12T07:09:22.718Z,94888.31
2022-09-12T07:12:28.753Z,94902.34
2022-09-12T07:15:31.894Z,94905.50
2022-09-12T07:18:35.622Z,94904.03
2022-09-12T07:21:40.483Z,94909.06
2022-09-12T07:24:46.055Z,94909.97
2022-09-12T07:27:51.299Z,94910.31
2022-09-12T07:30:55.020Z,94898.59
2022-09-12T07:33:58.074Z,94900.47
2022-09-12T07:37:01.087Z,94905.19
2022-09-12T07:40:04.308Z,94902.53
2022-09-12T07:43:08.805Z,94905.97
2022-09-12T07:46:12.157Z,94899.19
2022-09-12T07:49:15.296Z,94902.63
2022-09-12T07:52:18.693Z,94899.25
2022-09-12T07:55:23.321Z,94897.94
2022-09-12T07:58:28.074Z,94905.75
2022-09-12T08:01:31.442Z,94906.88
2022-09-12T08:04:36.467Z,94903.19
2022-09-12T08:07:39.583Z,94894.38
2022-09-12T08:10:43.007Z,94895.59
2022-09-12T08:13:52.986Z,94898.63
2022-09-12T08:16:58.645Z,94902.41
2022-09-12T08:20:02.251Z,94898.63
2022-09-12T08:23:05.360Z,94903.97
2022-09-12T08:26:08.869Z,94897.06
2022-09-12T08:29:13.489Z,94895.72
2022-09-12T08:32:16.545Z,94892.84
2022-09-12T08:35:19.821Z,94895.16
2022-09-12T08:38:24.426Z,94898.50
2022-09-12T08:41:31.508Z,94903.41
2022-09-12T08:44:54.761Z,94900.16
2022-09-12T08:47:58.156Z,94886.84
2022-09-12T08:51:05.107Z,94894.09
2022-09-12T08:54:20.862Z,94898.91
2022-09-12T08:57:25.315Z,94892.91
2022-09-12T09:00:40.821Z,94892.69
2022-09-12T09:04:06.073Z,94893.69
2022-09-12T09:07:34.653Z,94885.81
2022-09-12T09:10:48.894Z,94889.09
2022-09-12T09:14:20.301Z,94881.69
2022-09-12T09:17:29.088Z,94877.72
2022-09-12T09:20:36.691Z,94879.94
2022-09-12T09:23:43.826Z,94867.47
2022-09-12T09:26:53.057Z,94866.78
2022-09-12T09:29:57.319Z,94862.66
2022-09-12T09:33:04.864Z,94865.22
2022-09-12T09:36:22.472Z,94851.94
2022-09-12T09:39:37.616Z,94858.56
2022-09-12T09:42:46.910Z,94856.97
2022-09-12T09:45:51.984Z,94860.66
2022-09-12T09:49:02.298Z,94859.88
2022-09-12T09:52:08.402Z,94851.50
2022-09-12T09:55:18.289Z,94850.19
2022-09-12T09:58:30.443Z,94849.28
2022-09-12T10:01:33.667Z,94847.72
2022-09-12T10:04:42.146Z,94857.66
2022-09-12T10:07:51.747Z,94850.28
2022-09-12T10:11:00.812Z,94849.03
2022-09-12T10:14:04.724Z,94844.03
2022-09-12T10:17:34.213Z,94849.81
2022-09-12T10:20:41.906Z,94851.38
2022-09-12T10:23:46.262Z,94841.91
2022-09-12T10:26:56.714Z,94834.66
2022-09-12T10:30:04.323Z,94837.13
2022-09-12T10:33:12.898Z,94848.50
2022-09-12T10:36:18.487Z,94842.25
2022-09-12T10:39:22.530Z,94841.91
2022-09-12T10:42:48.105Z,94852.06
2022-09-12T10:45:52.017Z,94850.94
2022-09-12T10:49:15.233Z,94841.34
2022-09-12T10:52:24.555Z,94853.34
2022-09-12T10:55:36.526Z,94841.19
2022-09-12T10:59:08.105Z,94840.22
2022-09-12T11:02:21.524Z,94840.91
2022-09-12T11:05:39.286Z,94842.00
2022-09-12T11:08:59.527Z,94839.00
2022-09-12T11:12:12.941Z,94831.41
2022-09-12T11:15:35.346Z,94824.56
2022-09-12T11:18:58.143Z,94832.16
2022-09-12T11:22:21.491Z,94829.47
2022-09-12T11:25:33.038Z,94835.28
2022-09-12T11:28:47.277Z,94840.97
2022-09-12T11:32:09.442Z,94839.28
2022-09-12T11:35:20.596Z,94832.38
2022-09-12T11:38:39.326Z,94829.69
2022-09-12T11:41:48.064Z,94838.50
2022-09-12T11:44:59.534Z,94834.59
2022-09-12T11:48:09.057Z,94842.97
2022-09-12T11:51:20.085Z,94847.72
2022-09-12T11:54:29.876Z,94829.56
2022-09-12T11:57:41.058Z,94835.88
2022-09-12T12:00:49.530Z,94828.78
2022-09-12T12:03:55.714Z,94851.28
2022-09-12T12:07:06.133Z,94842.19
2022-09-12T12:10:27.264Z,94832.09
2022-09-12T12:13:35.349Z,94839.03
2022-09-12T12:16:40.335Z,94839.69
2022-09-12T12:19:43.915Z,94826.75
2022-09-12T12:22:53.690Z,94836.34
2022-09-12T12:25:59.242Z,94825.97
2022-09-12T12:29:03.912Z,94831.66
2022-09-12T12:32:28.321Z,94819.72
2022-09-12T12:35:42.760Z,94825.63
2022-09-12T12:38:46.015Z,94815.25
2022-09-12T12:41:49.142Z,94825.63
2022-09-12T12:44:53.855Z,94831.31
2022-09-12T12:48:03.167Z,94826.75
2022-09-12T12:51:48.469Z,94837.44
2022-09-12T12:54:56.542Z,94832.09
2022-09-12T12:58:01.511Z,94818.59
2022-09-12T13:01:12.861Z,94820.28
2022-09-12T13:04:19.251Z,94832.25
2022-09-12T13:07:28.936Z,94839.03
2022-09-12T13:10:33.101Z,94840.47
2022-09-12T13:13:40.480Z,94842.34
2022-09-12T13:16:56.979Z,94851.28
2022-09-12T13:20:26.598Z,94840.13
2022-09-12T13:23:32.631Z,94832.25
2022-09-12T13:26:41.694Z,94826.75
2022-09-12T13:29:44.743Z,94834.44
2022-09-12T13:32:49.315Z,94822.94
2022-09-12T13:36:09.987Z,94830.81
2022-09-12T13:39:20.359Z,94830.03
2022-09-12T13:42:42.826Z,94823.88
2022-09-12T13:45:48.297Z,94833.94
2022-09-12T13:48:52.926Z,94821.53
2022-09-12T13:52:01.236Z,94825.22
2022-09-12T13:55:09.894Z,94824.03
2022-09-12T13:58:24.330Z,94829.19
2022-09-12T14:01:39.761Z,94828.41
2022-09-12T14:05:06.140Z,94833.09
2022-09-12T14:08:10.513Z,94824.59
2022-09-12T14:11:22.787Z,94826.16
2022-09-12T14:14:32.019Z,94828.06
2022-09-12T14:17:37.438Z,94827.63
2022-09-12T14:20:42.994Z,94824.16
2022-09-12T14:23:48.860Z,94829.50
2022-09-12T14:26:56.976Z,94819.47
2022-09-12T14:30:03.880Z,94827.16
2022-09-12T14:33:20.001Z,94822.44
2022-09-12T14:36:28.661Z,94833.16
2022-09-12T14:39:35.025Z,94828.91
2022-09-12T14:42:38.250Z,94831.47
2022-09-12T14:45:41.560Z,94822.34
2022-09-12T14:48:49.128Z,94834.94
2022-09-12T14:52:00.167Z,94829.91
2022-09-12T14:55:05.866Z,94837.16
2022-09-12T14:58:16.081Z,94836.38
2022-09-12T15:01:28.555Z,94819.88
2022-09-12T15:04:41.946Z,94833.25
2022-09-12T15:07:54.016Z,94827.91
2022-09-12T15:10:57.508Z,94830.59
2022-09-12T15:14:07.707Z,94829.81
2022-09-12T15:17:11.223Z,94833.25
2022-09-12T15:20:15.251Z,94834.38
2022-09-12T15:23:31.266Z,94831.69
2022-09-12T15:26:34.336Z,94828.56
2022-09-12T15:29:37.388Z,94829.25
2022-09-12T15:32:41.254Z,94828.78
2022-09-12T15:35:44.429Z,94823.28
2022-09-12T15:38:49.865Z,94825.97
2022-09-12T15:41:52.891Z,94834.31
2022-09-12T15:45:01.791Z,94825.84
2022-09-12T15:48:06.342Z,94821.38
2022-09-12T15:51:15.390Z,94823.28
2022-09-12T15:54:21.802Z,94816.69
2022-09-12T15:57:25.192Z,94821.47
2022-09-12T16:00:28.364Z,94820.38
2022-09-12T16:03:31.796Z,94822.72
2022-09-12T16:06:37.168Z,94828.63
2022-09-12T16:09:42.545Z,94835.53
2022-09-12T16:12:46.601Z,94834.75
2022-09-12T16:15:50.027Z,94834.59
2022-09-12T16:18:53.452Z,94824.88
2022-09-12T16:21:58.734Z,94833.44
2022-09-12T16:25:03.390Z,94828.44
2022-09-12T16:28:07.336Z,94824.97
2022-09-12T16:31:13.609Z,94820.88
2022-09-12T16:34:16.743Z,94835.19
2022-09-12T16:37:20.211Z,94834.91
2022-09-12T16:40:25.194Z,94835.53
2022-09-12T16:43:28.386Z,94834.56
2022-09-12T16:46:31.996Z,94832.00
2022-09-12T16:49:35.079Z,94835.91
2022-09-12T16:52:38.112Z,94834.34
2022-09-12T16:55:49.866Z,94829.66
2022-09-12T16:58:53.266Z,94842.72
2022-09-12T17:01:56.384Z,94846.50
2022-09-12T17:04:59.516Z,94845.84
2022-09-12T17:08:03.170Z,94842.25
2022-09-12T17:11:09.542Z,94846.06
2022-09-12T17:14:13.000Z,94855.53
2022-09-12T17:17:16.223Z,94850.78
2022-09-12T17:20:23.886Z,94854.88
2022-09-12T17:23:27.704Z,94857.72
2022-09-12T17:26:33.242Z,94862.44
2022-09-12T17:29:42.082Z,94864.47
2022-09-12T17:32:46.123Z,94849.38
2022-09-12T17:35:51.445Z,94859.56
2022-09-12T17:38:54.893Z,94864.13
2022-09-12T17:42:01.712Z,94874.63
2022-09-12T17:45:05.413Z,94869.28
2022-09-12T17:48:10.929Z,94867.13
2022-09-12T17:51:15.546Z,94872.72
2022-09-12T17:54:20.916Z,94871.72
2022-09-12T17:57:26.197Z,94873.78
2022-09-12T18:00:43.889Z,94879.28
2022-09-12T18:03:47.421Z,94875.66
2022-09-12T18:06:50.962Z,94881.94
2022-09-12T18:09:54.618Z,94895.03
2022-09-12T18:12:59.902Z,94882.88
2022-09-12T18:16:07.589Z,94898.16
2022-09-12T18:19:10.951Z,94886.38
2022-09-12T18:22:14.388Z,94897.06
2022-09-12T18:25:17.787Z,94886.22
2022-09-12T18:28:23.352Z,94894.13
2022-09-12T18:31:28.977Z,94900.91
2022-09-12T18:34:32.208Z,94910.03
2022-09-12T18:37:35.334Z,94907.81
2022-09-12T18:40:38.553Z,94904.56
2022-09-12T18:43:43.289Z,94909.13
2022-09-12T18:46:46.708Z,94905.19
2022-09-12T18:49:49.753Z,94903.63
2022-09-12T18:52:56.689Z,94906.16
2022-09-12T18:56:04.255Z,94906.03
2022-09-12T18:59:12.866Z,94909.34
2022-09-12T19:02:17.690Z,94905.56
2022-09-12T19:05:20.829Z,94901.78
2022-09-12T19:08:23.935Z,94905.84
2022-09-12T19:11:28.647Z,94906.25
2022-09-12T19:14:33.437Z,94910.94
2022-09-12T19:17:36.659Z,94907.50
2022-09-12T19:20:40.126Z,94895.56
2022-09-12T19:23:43.894Z,94907.16
2022-09-12T19:26:47.266Z,94906.38
2022-09-12T19:29:51.734Z,94902.91
2022-09-12T19:32:54.896Z,94906.38
2022-09-12T19:36:01.858Z,94902.59
2022-09-12T19:39:05.499Z,94900.38
2022-09-12T19:42:08.798Z,94903.38
2022-09-12T19:45:13.345Z,94899.59
2022-09-12T19:48:16.406Z,94901.16
2022-09-12T19:51:20.871Z,94903.06
2022-09-12T19:54:24.032Z,94904.94
2022-09-12T19:57:27.084Z,94902.72
2022-09-12T20:00:31.803Z,94911.84
2022-09-12T20:03:36.254Z,94913.75
2022-09-12T20:06:39.371Z,94920.88
2022-09-12T20:09:42.473Z,94913.94
2022-09-12T20:12:45.832Z,94918.53
2022-09-12T20:15:50.360Z,94918.06
2022-09-12T20:18:57.870Z,94909.25
2022-09-12T20:22:01.199Z,94914.59
2022-09-12T20:25:04.976Z,94915.88
2022-09-12T20:28:08.133Z,94911.97
2022-09-12T20:31:16.297Z,94915.25
2022-09-12T20:34:22.154Z,94907.41
2022-09-12T20:37:25.560Z,94912.09
2022-09-12T20:40:28.697Z,94913.66
2022-09-12T20:43:31.896Z,94919.00
2022-09-12T20:46:36.583Z,94916.53
2022-09-12T20:49:39.694Z,94926.59
2022-09-12T20:52:42.852Z,94922.34
2022-09-12T20:55:52.009Z,94918.09
2022-09-12T20:58:55.864Z,94921.88
2022-09-12T21:02:00.465Z,94916.88
2022-09-12T21:05:03.668Z,94929.91
2022-09-12T21:08:07.282Z,94918.75
2022-09-12T21:11:11.142Z,94918.28
2022-09-12T21:14:14.543Z,94920.19
2022-09-12T21:17:18.980Z,94904.66
2022-09-12T21:20:22.290Z,94914.06
2022-09-12T21:23:26.921Z,94918.94
2022-09-12T21:26:31.823Z,94921.94
2022-09-12T21:29:34.866Z,94919.59
2022-09-12T21:32:41.530Z,94921.63
2022-09-12T21:35:44.634Z,94926.19
2022-09-12T21:38:47.698Z,94926.50
2022-09-12T21:41:50.788Z,94922.91
2022-09-12T21:44:53.914Z,94927.13
2022-09-12T21:47:58.967Z,94932.47
2022-09-12T21:51:02.318Z,94922.13
2022-09-12T21:54:05.624Z,94918.34
2022-09-12T21:57:09.270Z,94920.22
2022-09-12T22:00:15.237Z,94924.47
2022-09-12T22:03:19.888Z,94914.88
2022-09-12T22:06:22.934Z,94908.28
2022-09-12T22:09:25.943Z,94905.59
2022-09-12T22:12:29.453Z,94905.28
2022-09-12T22:15:41.101Z,94919.75
2022-09-12T22:18:47.595Z,94908.59
2022-09-12T22:22:08.180Z,94909.06
2022-09-12T22:25:12.738Z,94912.84
2022-09-12T22:28:16.056Z,94916.63
2022-09-12T22:31:19.226Z,94908.47
2022-09-12T22:34:23.739Z,94911.28
2022-09-12T22:37:26.829Z,94912.84
2022-09-12T22:40:29.918Z,94907.03
2022-09-12T22:43:33.806Z,94910.81
2022-09-12T22:46:37.942Z,94903.91
2022-09-12T22:49:42.598Z,94906.25
2022-09-12T22:52:45.743Z,94901.22
2022-09-12T22:55:48.850Z,94898.09
2022-09-12T22:58:52.232Z,94906.59
2022-09-12T23:01:55.236Z,94908.03
2022-09-12T23:04:59.657Z,94897.66
2022-09-12T23:08:03.002Z,94886.19
2022-09-12T23:11:08.095Z,94896.09
2022-09-12T23:14:11.212Z,94896.53
2022-09-12T23:17:14.482Z,94892.75
2022-09-12T23:20:18.999Z,94885.06
2022-09-12T23:23:22.184Z,94884.44
2022-09-12T23:26:28.231Z,94884.44
2022-09-12T23:29:35.477Z,94877.53
2022-09-12T23:32:38.663Z,94874.06
2022-09-12T23:35:44.330Z,94876.28
2022-09-12T23:38:48.648Z,94875.50
2022-09-12T23:41:52.203Z,94875.97
2022-09-12T23:44:55.600Z,94879.09
2022-09-12T23:47:58.630Z,94889.34
2022-09-12T23:51:03.536Z,94884.63
2022-09-12T23:54:06.683Z,94884.31
2022-09-12T23:57:09.910Z,94878.81
